sensor_id;sensor_type;location;lat;lon;timestamp;temperature;humidity
81222;DHT22;70691;52.492;13.420;2023-11-21T00:02:21;11.20;70.20
81222;DHT22;70691;52.492;13.420;2023-11-21T00:04:48;11.10;69.70
81222;DHT22;70691;52.492;13.420;2023-11-21T00:07:14;11.00;70.60
81222;DHT22;70691;52.492;13.420;2023-11-21T00:09:40;10.90;70.60
81222;DHT22;70691;52.492;13.420;2023-11-21T00:12:09;10.70;71.60
81222;DHT22;70691;52.492;13.420;2023-11-21T00:14:36;10.70;71.00
81222;DHT22;70691;52.492;13.420;2023-11-21T00:17:02;10.60;71.60
81222;DHT22;70691;52.492;13.420;2023-11-21T00:19:28;10.50;72.40
81222;DHT22;70691;52.492;13.420;2023-11-21T00:21:53;10.50;71.90
81222;DHT22;70691;52.492;13.420;2023-11-21T00:24:19;10.50;71.20
81222;DHT22;70691;52.492;13.420;2023-11-21T00:26:45;10.50;71.50
81222;DHT22;70691;52.492;13.420;2023-11-21T00:29:11;10.60;71.00
81222;DHT22;70691;52.492;13.420;2023-11-21T00:31:37;10.50;71.20
81222;DHT22;70691;52.492;13.420;2023-11-21T00:34:04;10.40;70.90
81222;DHT22;70691;52.492;13.420;2023-11-21T00:36:33;10.30;71.10
81222;DHT22;70691;52.492;13.420;2023-11-21T00:38:59;10.30;69.90
81222;DHT22;70691;52.492;13.420;2023-11-21T00:41:25;10.30;70.40
81222;DHT22;70691;52.492;13.420;2023-11-21T00:43:54;10.20;71.10
81222;DHT22;70691;52.492;13.420;2023-11-21T00:46:20;10.20;70.90
81222;DHT22;70691;52.492;13.420;2023-11-21T00:48:46;10.10;70.40
81222;DHT22;70691;52.492;13.420;2023-11-21T00:51:12;10.20;70.30
81222;DHT22;70691;52.492;13.420;2023-11-21T00:53:37;10.00;70.80
81222;DHT22;70691;52.492;13.420;2023-11-21T00:56:03;10.00;70.90
81222;DHT22;70691;52.492;13.420;2023-11-21T00:58:29;9.90;71.50
81222;DHT22;70691;52.492;13.420;2023-11-21T01:00:55;9.90;71.10
81222;DHT22;70691;52.492;13.420;2023-11-21T01:03:21;9.90;70.80
81222;DHT22;70691;52.492;13.420;2023-11-21T01:05:47;9.90;70.30
81222;DHT22;70691;52.492;13.420;2023-11-21T01:08:15;9.80;70.60
81222;DHT22;70691;52.492;13.420;2023-11-21T01:10:41;9.80;70.70
81222;DHT22;70691;52.492;13.420;2023-11-21T01:13:06;9.70;70.30
81222;DHT22;70691;52.492;13.420;2023-11-21T01:15:33;9.60;70.20
81222;DHT22;70691;52.492;13.420;2023-11-21T01:17:59;9.50;71.10
81222;DHT22;70691;52.492;13.420;2023-11-21T01:20:25;9.50;71.50
81222;DHT22;70691;52.492;13.420;2023-11-21T01:22:51;9.40;71.60
81222;DHT22;70691;52.492;13.420;2023-11-21T01:25:17;9.30;72.00
81222;DHT22;70691;52.492;13.420;2023-11-21T01:27:43;9.20;72.50
81222;DHT22;70691;52.492;13.420;2023-11-21T01:30:09;9.20;73.30
81222;DHT22;70691;52.492;13.420;2023-11-21T01:32:36;9.20;72.90
81222;DHT22;70691;52.492;13.420;2023-11-21T01:35:03;9.40;72.10
81222;DHT22;70691;52.492;13.420;2023-11-21T01:37:31;9.30;72.40
81222;DHT22;70691;52.492;13.420;2023-11-21T01:39:56;9.30;72.60
81222;DHT22;70691;52.492;13.420;2023-11-21T01:42:22;9.40;71.30
81222;DHT22;70691;52.492;13.420;2023-11-21T01:44:48;9.40;71.10
81222;DHT22;70691;52.492;13.420;2023-11-21T01:47:14;9.30;70.80
81222;DHT22;70691;52.492;13.420;2023-11-21T01:49:44;9.20;71.40
81222;DHT22;70691;52.492;13.420;2023-11-21T01:52:10;9.10;70.70
81222;DHT22;70691;52.492;13.420;2023-11-21T01:54:37;9.00;70.80
81222;DHT22;70691;52.492;13.420;2023-11-21T01:57:04;8.80;70.60
81222;DHT22;70691;52.492;13.420;2023-11-21T01:59:36;8.70;71.80
81222;DHT22;70691;52.492;13.420;2023-11-21T02:02:03;8.70;71.40
81222;DHT22;70691;52.492;13.420;2023-11-21T02:04:31;8.70;71.10
81222;DHT22;70691;52.492;13.420;2023-11-21T02:06:57;8.70;71.20
81222;DHT22;70691;52.492;13.420;2023-11-21T02:09:27;8.70;70.70
81222;DHT22;70691;52.492;13.420;2023-11-21T02:11:53;8.70;70.90
81222;DHT22;70691;52.492;13.420;2023-11-21T02:14:20;8.70;70.40
81222;DHT22;70691;52.492;13.420;2023-11-21T02:16:51;8.70;69.90
81222;DHT22;70691;52.492;13.420;2023-11-21T02:19:21;8.70;70.50
81222;DHT22;70691;52.492;13.420;2023-11-21T02:21:51;8.70;70.90
81222;DHT22;70691;52.492;13.420;2023-11-21T02:24:21;8.60;71.20
81222;DHT22;70691;52.492;13.420;2023-11-21T02:26:47;8.60;71.70
81222;DHT22;70691;52.492;13.420;2023-11-21T02:29:13;8.70;71.80
81222;DHT22;70691;52.492;13.420;2023-11-21T02:31:39;8.60;72.20
81222;DHT22;70691;52.492;13.420;2023-11-21T02:34:17;8.70;71.40
81222;DHT22;70691;52.492;13.420;2023-11-21T02:36:44;8.80;70.20
81222;DHT22;70691;52.492;13.420;2023-11-21T02:39:10;8.80;70.10
81222;DHT22;70691;52.492;13.420;2023-11-21T02:41:37;8.70;69.80
81222;DHT22;70691;52.492;13.420;2023-11-21T02:44:03;8.70;70.70
81222;DHT22;70691;52.492;13.420;2023-11-21T02:46:29;8.70;71.30
81222;DHT22;70691;52.492;13.420;2023-11-21T02:48:54;8.70;71.40
81222;DHT22;70691;52.492;13.420;2023-11-21T02:51:20;8.70;71.80
81222;DHT22;70691;52.492;13.420;2023-11-21T02:53:46;8.90;70.60
81222;DHT22;70691;52.492;13.420;2023-11-21T02:56:16;8.80;70.50
81222;DHT22;70691;52.492;13.420;2023-11-21T02:58:42;8.80;69.20
81222;DHT22;70691;52.492;13.420;2023-11-21T03:01:09;8.60;70.00
81222;DHT22;70691;52.492;13.420;2023-11-21T03:03:39;8.60;70.50
81222;DHT22;70691;52.492;13.420;2023-11-21T03:06:06;8.40;71.10
81222;DHT22;70691;52.492;13.420;2023-11-21T03:08:32;8.30;71.40
81222;DHT22;70691;52.492;13.420;2023-11-21T03:10:58;8.30;71.40
81222;DHT22;70691;52.492;13.420;2023-11-21T03:13:24;8.20;71.60
81222;DHT22;70691;52.492;13.420;2023-11-21T03:15:50;8.10;71.60
81222;DHT22;70691;52.492;13.420;2023-11-21T03:18:15;8.10;72.00
81222;DHT22;70691;52.492;13.420;2023-11-21T03:20:42;8.10;72.30
81222;DHT22;70691;52.492;13.420;2023-11-21T03:23:11;8.10;71.90
81222;DHT22;70691;52.492;13.420;2023-11-21T03:25:37;8.10;72.00
81222;DHT22;70691;52.492;13.420;2023-11-21T03:28:03;8.20;70.90
81222;DHT22;70691;52.492;13.420;2023-11-21T03:30:28;8.20;71.40
81222;DHT22;70691;52.492;13.420;2023-11-21T03:32:54;8.10;72.10
81222;DHT22;70691;52.492;13.420;2023-11-21T03:35:20;8.20;71.80
81222;DHT22;70691;52.492;13.420;2023-11-21T03:37:46;8.30;71.00
81222;DHT22;70691;52.492;13.420;2023-11-21T03:40:12;8.40;71.30
81222;DHT22;70691;52.492;13.420;2023-11-21T03:42:38;8.30;71.70
81222;DHT22;70691;52.492;13.420;2023-11-21T03:45:06;8.30;71.40
81222;DHT22;70691;52.492;13.420;2023-11-21T03:47:32;8.40;71.20
81222;DHT22;70691;52.492;13.420;2023-11-21T03:49:58;8.50;70.60
81222;DHT22;70691;52.492;13.420;2023-11-21T03:52:24;8.50;69.70
81222;DHT22;70691;52.492;13.420;2023-11-21T03:54:50;8.60;68.70
81222;DHT22;70691;52.492;13.420;2023-11-21T03:57:15;8.60;69.10
81222;DHT22;70691;52.492;13.420;2023-11-21T03:59:42;8.60;69.10
81222;DHT22;70691;52.492;13.420;2023-11-21T04:02:08;8.50;69.80
81222;DHT22;70691;52.492;13.420;2023-11-21T04:04:34;8.60;68.80
81222;DHT22;70691;52.492;13.420;2023-11-21T04:07:00;8.60;68.90
81222;DHT22;70691;52.492;13.420;2023-11-21T04:09:26;8.70;67.40
81222;DHT22;70691;52.492;13.420;2023-11-21T04:11:52;8.60;67.00
81222;DHT22;70691;52.492;13.420;2023-11-21T04:14:18;8.60;65.60
81222;DHT22;70691;52.492;13.420;2023-11-21T04:16:44;8.60;65.00
81222;DHT22;70691;52.492;13.420;2023-11-21T04:19:10;8.40;65.70
81222;DHT22;70691;52.492;13.420;2023-11-21T04:21:37;8.40;65.50
81222;DHT22;70691;52.492;13.420;2023-11-21T04:24:02;8.40;64.60
81222;DHT22;70691;52.492;13.420;2023-11-21T04:26:28;8.40;64.20
81222;DHT22;70691;52.492;13.420;2023-11-21T04:28:54;8.30;65.20
81222;DHT22;70691;52.492;13.420;2023-11-21T04:31:19;8.30;65.00
81222;DHT22;70691;52.492;13.420;2023-11-21T04:33:45;8.30;64.00
81222;DHT22;70691;52.492;13.420;2023-11-21T04:36:11;8.20;64.80
81222;DHT22;70691;52.492;13.420;2023-11-21T04:38:36;8.20;65.10
81222;DHT22;70691;52.492;13.420;2023-11-21T04:41:02;8.20;64.60
81222;DHT22;70691;52.492;13.420;2023-11-21T04:43:27;8.20;64.90
81222;DHT22;70691;52.492;13.420;2023-11-21T04:45:55;8.20;65.10
81222;DHT22;70691;52.492;13.420;2023-11-21T04:48:20;8.20;65.60
81222;DHT22;70691;52.492;13.420;2023-11-21T04:50:46;8.30;65.30
81222;DHT22;70691;52.492;13.420;2023-11-21T04:53:12;8.30;65.20
81222;DHT22;70691;52.492;13.420;2023-11-21T04:55:40;8.20;66.00
81222;DHT22;70691;52.492;13.420;2023-11-21T04:58:07;8.30;64.90
81222;DHT22;70691;52.492;13.420;2023-11-21T05:00:33;8.40;65.00
81222;DHT22;70691;52.492;13.420;2023-11-21T05:02:59;8.20;65.70
81222;DHT22;70691;52.492;13.420;2023-11-21T05:05:26;8.30;64.70
81222;DHT22;70691;52.492;13.420;2023-11-21T05:07:52;8.30;64.80
81222;DHT22;70691;52.492;13.420;2023-11-21T05:10:19;8.30;64.50
81222;DHT22;70691;52.492;13.420;2023-11-21T05:12:45;8.30;65.10
81222;DHT22;70691;52.492;13.420;2023-11-21T05:15:15;8.30;64.50
81222;DHT22;70691;52.492;13.420;2023-11-21T05:17:41;8.30;64.20
81222;DHT22;70691;52.492;13.420;2023-11-21T05:20:14;8.20;64.10
81222;DHT22;70691;52.492;13.420;2023-11-21T05:22:43;8.10;64.90
81222;DHT22;70691;52.492;13.420;2023-11-21T05:25:09;8.10;65.40
81222;DHT22;70691;52.492;13.420;2023-11-21T05:27:36;8.20;64.90
81222;DHT22;70691;52.492;13.420;2023-11-21T05:30:02;8.20;64.90
81222;DHT22;70691;52.492;13.420;2023-11-21T05:32:31;8.20;64.90
81222;DHT22;70691;52.492;13.420;2023-11-21T05:34:56;8.10;65.70
81222;DHT22;70691;52.492;13.420;2023-11-21T05:37:22;8.10;64.80
81222;DHT22;70691;52.492;13.420;2023-11-21T05:39:49;8.10;65.20
81222;DHT22;70691;52.492;13.420;2023-11-21T05:42:14;8.10;64.50
81222;DHT22;70691;52.492;13.420;2023-11-21T05:44:42;8.00;64.80
81222;DHT22;70691;52.492;13.420;2023-11-21T05:47:08;7.90;65.50
81222;DHT22;70691;52.492;13.420;2023-11-21T05:49:35;7.90;65.50
81222;DHT22;70691;52.492;13.420;2023-11-21T05:52:01;7.90;65.90
81222;DHT22;70691;52.492;13.420;2023-11-21T05:54:26;7.90;66.30
81222;DHT22;70691;52.492;13.420;2023-11-21T05:56:52;7.90;65.60
81222;DHT22;70691;52.492;13.420;2023-11-21T05:59:18;7.90;65.30
81222;DHT22;70691;52.492;13.420;2023-11-21T06:01:43;7.90;66.20
81222;DHT22;70691;52.492;13.420;2023-11-21T06:04:11;7.90;65.80
81222;DHT22;70691;52.492;13.420;2023-11-21T06:06:37;7.90;65.10
81222;DHT22;70691;52.492;13.420;2023-11-21T06:09:02;7.90;65.20
81222;DHT22;70691;52.492;13.420;2023-11-21T06:11:28;7.90;66.00
81222;DHT22;70691;52.492;13.420;2023-11-21T06:13:54;7.80;66.70
81222;DHT22;70691;52.492;13.420;2023-11-21T06:16:20;7.90;65.40
81222;DHT22;70691;52.492;13.420;2023-11-21T06:18:46;7.90;65.10
81222;DHT22;70691;52.492;13.420;2023-11-21T06:21:12;7.70;67.00
81222;DHT22;70691;52.492;13.420;2023-11-21T06:23:38;7.80;65.30
81222;DHT22;70691;52.492;13.420;2023-11-21T06:26:04;7.90;64.90
81222;DHT22;70691;52.492;13.420;2023-11-21T06:28:31;7.80;65.20
81222;DHT22;70691;52.492;13.420;2023-11-21T06:30:57;7.70;64.60
81222;DHT22;70691;52.492;13.420;2023-11-21T06:33:31;7.70;65.00
81222;DHT22;70691;52.492;13.420;2023-11-21T06:35:56;7.70;65.00
81222;DHT22;70691;52.492;13.420;2023-11-21T06:38:22;7.70;65.10
81222;DHT22;70691;52.492;13.420;2023-11-21T06:40:48;7.70;65.30
81222;DHT22;70691;52.492;13.420;2023-11-21T06:43:13;7.80;64.40
81222;DHT22;70691;52.492;13.420;2023-11-21T06:45:40;7.70;64.60
81222;DHT22;70691;52.492;13.420;2023-11-21T06:48:05;7.70;64.90
81222;DHT22;70691;52.492;13.420;2023-11-21T06:50:31;7.90;64.10
81222;DHT22;70691;52.492;13.420;2023-11-21T06:52:56;7.90;63.50
81222;DHT22;70691;52.492;13.420;2023-11-21T06:55:22;8.00;63.40
81222;DHT22;70691;52.492;13.420;2023-11-21T06:57:48;7.90;63.70
81222;DHT22;70691;52.492;13.420;2023-11-21T07:00:16;7.70;64.30
81222;DHT22;70691;52.492;13.420;2023-11-21T07:02:45;7.70;63.90
81222;DHT22;70691;52.492;13.420;2023-11-21T07:05:11;7.70;64.70
81222;DHT22;70691;52.492;13.420;2023-11-21T07:07:36;7.60;64.10
81222;DHT22;70691;52.492;13.420;2023-11-21T07:10:03;7.60;64.50
81222;DHT22;70691;52.492;13.420;2023-11-21T07:12:31;7.70;64.70
81222;DHT22;70691;52.492;13.420;2023-11-21T07:14:57;7.60;65.00
81222;DHT22;70691;52.492;13.420;2023-11-21T07:17:23;7.60;64.30
81222;DHT22;70691;52.492;13.420;2023-11-21T07:19:49;7.70;64.20
81222;DHT22;70691;52.492;13.420;2023-11-21T07:22:16;7.70;63.70
81222;DHT22;70691;52.492;13.420;2023-11-21T07:24:48;7.70;63.60
81222;DHT22;70691;52.492;13.420;2023-11-21T07:27:16;7.70;63.60
81222;DHT22;70691;52.492;13.420;2023-11-21T07:29:42;7.80;63.90
81222;DHT22;70691;52.492;13.420;2023-11-21T07:32:07;7.80;63.60
81222;DHT22;70691;52.492;13.420;2023-11-21T07:34:35;7.70;63.50
81222;DHT22;70691;52.492;13.420;2023-11-21T07:37:01;7.70;63.40
81222;DHT22;70691;52.492;13.420;2023-11-21T07:39:27;7.60;63.60
81222;DHT22;70691;52.492;13.420;2023-11-21T07:41:52;7.70;63.50
81222;DHT22;70691;52.492;13.420;2023-11-21T07:44:18;7.60;63.60
81222;DHT22;70691;52.492;13.420;2023-11-21T07:46:45;7.50;64.30
81222;DHT22;70691;52.492;13.420;2023-11-21T07:49:11;7.50;64.90
81222;DHT22;70691;52.492;13.420;2023-11-21T07:51:37;7.50;65.20
81222;DHT22;70691;52.492;13.420;2023-11-21T07:54:03;7.50;65.40
81222;DHT22;70691;52.492;13.420;2023-11-21T07:56:28;7.70;64.10
81222;DHT22;70691;52.492;13.420;2023-11-21T07:58:54;7.80;62.60
81222;DHT22;70691;52.492;13.420;2023-11-21T08:01:19;7.90;62.00
81222;DHT22;70691;52.492;13.420;2023-11-21T08:03:45;7.90;62.40
81222;DHT22;70691;52.492;13.420;2023-11-21T08:06:11;7.80;62.50
81222;DHT22;70691;52.492;13.420;2023-11-21T08:08:37;7.70;62.50
81222;DHT22;70691;52.492;13.420;2023-11-21T08:11:03;7.80;62.50
81222;DHT22;70691;52.492;13.420;2023-11-21T08:13:29;7.70;62.30
81222;DHT22;70691;52.492;13.420;2023-11-21T08:15:58;7.70;62.50
81222;DHT22;70691;52.492;13.420;2023-11-21T08:18:28;7.60;62.80
81222;DHT22;70691;52.492;13.420;2023-11-21T08:20:54;7.50;64.40
81222;DHT22;70691;52.492;13.420;2023-11-21T08:23:20;7.50;63.40
81222;DHT22;70691;52.492;13.420;2023-11-21T08:25:46;7.50;63.20
81222;DHT22;70691;52.492;13.420;2023-11-21T08:28:12;7.50;63.60
81222;DHT22;70691;52.492;13.420;2023-11-21T08:30:40;7.50;63.20
81222;DHT22;70691;52.492;13.420;2023-11-21T08:33:07;7.50;63.10
81222;DHT22;70691;52.492;13.420;2023-11-21T08:35:34;7.50;63.50
81222;DHT22;70691;52.492;13.420;2023-11-21T08:38:00;7.40;64.20
81222;DHT22;70691;52.492;13.420;2023-11-21T08:40:26;7.50;63.30
81222;DHT22;70691;52.492;13.420;2023-11-21T08:42:52;7.50;63.00
81222;DHT22;70691;52.492;13.420;2023-11-21T08:45:18;7.60;62.80
81222;DHT22;70691;52.492;13.420;2023-11-21T08:47:45;7.70;61.80
81222;DHT22;70691;52.492;13.420;2023-11-21T08:50:11;7.60;62.30
81222;DHT22;70691;52.492;13.420;2023-11-21T08:52:38;7.60;62.00
81222;DHT22;70691;52.492;13.420;2023-11-21T08:55:07;7.60;62.10
81222;DHT22;70691;52.492;13.420;2023-11-21T08:57:36;7.60;62.80
81222;DHT22;70691;52.492;13.420;2023-11-21T09:00:03;7.60;62.70
81222;DHT22;70691;52.492;13.420;2023-11-21T09:02:32;7.70;62.30
81222;DHT22;70691;52.492;13.420;2023-11-21T09:04:59;7.70;62.00
81222;DHT22;70691;52.492;13.420;2023-11-21T09:07:29;7.70;61.30
81222;DHT22;70691;52.492;13.420;2023-11-21T09:09:55;7.60;61.20
81222;DHT22;70691;52.492;13.420;2023-11-21T09:12:20;7.40;62.50
81222;DHT22;70691;52.492;13.420;2023-11-21T09:14:47;7.10;63.20
81222;DHT22;70691;52.492;13.420;2023-11-21T09:17:13;7.00;64.20
81222;DHT22;70691;52.492;13.420;2023-11-21T09:19:40;7.00;64.70
81222;DHT22;70691;52.492;13.420;2023-11-21T09:22:06;6.90;64.40
81222;DHT22;70691;52.492;13.420;2023-11-21T09:24:35;6.90;65.50
81222;DHT22;70691;52.492;13.420;2023-11-21T09:27:01;6.90;65.40
81222;DHT22;70691;52.492;13.420;2023-11-21T09:29:27;6.90;65.60
81222;DHT22;70691;52.492;13.420;2023-11-21T09:31:53;7.00;65.40
81222;DHT22;70691;52.492;13.420;2023-11-21T09:34:23;7.10;65.60
81222;DHT22;70691;52.492;13.420;2023-11-21T09:36:48;7.10;65.60
81222;DHT22;70691;52.492;13.420;2023-11-21T09:39:15;7.00;65.60
81222;DHT22;70691;52.492;13.420;2023-11-21T09:41:50;7.10;65.80
81222;DHT22;70691;52.492;13.420;2023-11-21T09:45:05;7.10;65.80
81222;DHT22;70691;52.492;13.420;2023-11-21T09:47:15;7.20;64.80
81222;DHT22;70691;52.492;13.420;2023-11-21T09:49:42;7.30;64.00
81222;DHT22;70691;52.492;13.420;2023-11-21T09:52:09;7.40;64.30
81222;DHT22;70691;52.492;13.420;2023-11-21T09:54:36;7.50;63.30
81222;DHT22;70691;52.492;13.420;2023-11-21T09:57:02;7.50;63.00
81222;DHT22;70691;52.492;13.420;2023-11-21T09:59:30;7.30;62.00
81222;DHT22;70691;52.492;13.420;2023-11-21T10:01:59;7.20;63.20
81222;DHT22;70691;52.492;13.420;2023-11-21T10:04:25;7.20;63.40
81222;DHT22;70691;52.492;13.420;2023-11-21T10:06:52;7.10;62.40
81222;DHT22;70691;52.492;13.420;2023-11-21T10:09:18;7.00;63.20
81222;DHT22;70691;52.492;13.420;2023-11-21T10:11:47;7.00;63.10
81222;DHT22;70691;52.492;13.420;2023-11-21T10:14:16;7.00;64.10
81222;DHT22;70691;52.492;13.420;2023-11-21T10:16:44;7.10;62.60
81222;DHT22;70691;52.492;13.420;2023-11-21T10:19:13;7.10;62.70
81222;DHT22;70691;52.492;13.420;2023-11-21T10:21:42;7.10;63.10
81222;DHT22;70691;52.492;13.420;2023-11-21T10:24:08;7.10;62.80
81222;DHT22;70691;52.492;13.420;2023-11-21T10:26:34;7.00;63.10
81222;DHT22;70691;52.492;13.420;2023-11-21T10:29:02;6.90;63.60
81222;DHT22;70691;52.492;13.420;2023-11-21T10:31:31;6.80;64.80
81222;DHT22;70691;52.492;13.420;2023-11-21T10:34:18;6.80;64.80
81222;DHT22;70691;52.492;13.420;2023-11-21T10:36:45;6.90;65.20
81222;DHT22;70691;52.492;13.420;2023-11-21T10:39:18;6.80;65.70
81222;DHT22;70691;52.492;13.420;2023-11-21T10:41:45;6.90;65.80
81222;DHT22;70691;52.492;13.420;2023-11-21T10:44:17;6.90;65.90
81222;DHT22;70691;52.492;13.420;2023-11-21T10:46:48;6.90;66.30
81222;DHT22;70691;52.492;13.420;2023-11-21T10:49:24;6.80;66.70
81222;DHT22;70691;52.492;13.420;2023-11-21T10:51:53;6.80;66.70
81222;DHT22;70691;52.492;13.420;2023-11-21T10:54:24;6.80;66.40
81222;DHT22;70691;52.492;13.420;2023-11-21T10:56:55;6.80;66.10
81222;DHT22;70691;52.492;13.420;2023-11-21T10:59:22;6.80;66.50
81222;DHT22;70691;52.492;13.420;2023-11-21T11:01:50;6.80;67.00
81222;DHT22;70691;52.492;13.420;2023-11-21T11:04:19;6.70;67.80
81222;DHT22;70691;52.492;13.420;2023-11-21T11:06:51;6.70;68.50
81222;DHT22;70691;52.492;13.420;2023-11-21T11:09:19;6.70;68.00
81222;DHT22;70691;52.492;13.420;2023-11-21T11:11:46;6.70;68.00
81222;DHT22;70691;52.492;13.420;2023-11-21T11:14:13;6.90;67.40
81222;DHT22;70691;52.492;13.420;2023-11-21T11:16:40;7.00;67.00
81222;DHT22;70691;52.492;13.420;2023-11-21T11:19:09;7.00;65.80
81222;DHT22;70691;52.492;13.420;2023-11-21T11:27:54;7.30;64.00
81222;DHT22;70691;52.492;13.420;2023-11-21T11:36:02;7.20;63.50
81222;DHT22;70691;52.492;13.420;2023-11-21T11:38:33;7.10;64.20
81222;DHT22;70691;52.492;13.420;2023-11-21T11:41:02;7.00;64.50
81222;DHT22;70691;52.492;13.420;2023-11-21T11:43:29;7.00;65.00
81222;DHT22;70691;52.492;13.420;2023-11-21T11:45:58;7.00;65.00
81222;DHT22;70691;52.492;13.420;2023-11-21T11:48:25;6.90;64.90
81222;DHT22;70691;52.492;13.420;2023-11-21T11:51:13;6.90;65.60
81222;DHT22;70691;52.492;13.420;2023-11-21T11:53:47;6.90;65.60
81222;DHT22;70691;52.492;13.420;2023-11-21T11:56:30;7.00;65.30
81222;DHT22;70691;52.492;13.420;2023-11-21T11:58:58;7.00;65.40
81222;DHT22;70691;52.492;13.420;2023-11-21T12:01:26;7.10;65.60
81222;DHT22;70691;52.492;13.420;2023-11-21T12:06:42;7.20;64.90
81222;DHT22;70691;52.492;13.420;2023-11-21T12:09:21;7.20;65.30
81222;DHT22;70691;52.492;13.420;2023-11-21T12:11:52;7.20;64.50
81222;DHT22;70691;52.492;13.420;2023-11-21T12:14:18;7.30;64.20
81222;DHT22;70691;52.492;13.420;2023-11-21T12:16:45;7.30;64.40
81222;DHT22;70691;52.492;13.420;2023-11-21T12:19:11;7.20;64.50
81222;DHT22;70691;52.492;13.420;2023-11-21T12:21:37;7.20;64.50
81222;DHT22;70691;52.492;13.420;2023-11-21T12:24:03;7.10;64.60
81222;DHT22;70691;52.492;13.420;2023-11-21T12:26:29;7.10;64.50
81222;DHT22;70691;52.492;13.420;2023-11-21T12:28:56;6.90;64.90
81222;DHT22;70691;52.492;13.420;2023-11-21T12:31:22;6.70;66.20
81222;DHT22;70691;52.492;13.420;2023-11-21T12:33:48;6.60;66.80
81222;DHT22;70691;52.492;13.420;2023-11-21T12:36:14;6.50;67.80
81222;DHT22;70691;52.492;13.420;2023-11-21T12:38:40;6.30;69.20
81222;DHT22;70691;52.492;13.420;2023-11-21T12:41:07;6.30;69.90
81222;DHT22;70691;52.492;13.420;2023-11-21T12:43:33;6.30;70.40
81222;DHT22;70691;52.492;13.420;2023-11-21T12:46:10;6.40;71.20
81222;DHT22;70691;52.492;13.420;2023-11-21T12:48:41;6.50;70.70
81222;DHT22;70691;52.492;13.420;2023-11-21T12:51:08;6.60;69.60
81222;DHT22;70691;52.492;13.420;2023-11-21T12:53:35;6.80;68.90
81222;DHT22;70691;52.492;13.420;2023-11-21T12:56:13;6.80;66.30
81222;DHT22;70691;52.492;13.420;2023-11-21T12:58:39;6.70;66.50
81222;DHT22;70691;52.492;13.420;2023-11-21T13:01:07;6.60;66.60
81222;DHT22;70691;52.492;13.420;2023-11-21T13:03:38;6.40;67.40
81222;DHT22;70691;52.492;13.420;2023-11-21T13:06:04;6.30;67.60
81222;DHT22;70691;52.492;13.420;2023-11-21T13:08:31;6.20;68.80
81222;DHT22;70691;52.492;13.420;2023-11-21T13:10:58;6.10;69.70
81222;DHT22;70691;52.492;13.420;2023-11-21T13:13:27;6.00;70.80
81222;DHT22;70691;52.492;13.420;2023-11-21T13:15:59;6.10;71.70
81222;DHT22;70691;52.492;13.420;2023-11-21T13:18:30;6.30;70.60
81222;DHT22;70691;52.492;13.420;2023-11-21T13:20:58;6.40;68.30
81222;DHT22;70691;52.492;13.420;2023-11-21T13:23:25;6.50;67.80
81222;DHT22;70691;52.492;13.420;2023-11-21T13:25:52;6.50;67.60
81222;DHT22;70691;52.492;13.420;2023-11-21T13:28:18;6.60;67.70
81222;DHT22;70691;52.492;13.420;2023-11-21T13:30:46;6.60;67.20
81222;DHT22;70691;52.492;13.420;2023-11-21T13:33:13;6.60;67.10
81222;DHT22;70691;52.492;13.420;2023-11-21T13:35:44;6.70;65.80
81222;DHT22;70691;52.492;13.420;2023-11-21T13:38:16;6.70;65.20
81222;DHT22;70691;52.492;13.420;2023-11-21T13:40:47;6.80;64.80
81222;DHT22;70691;52.492;13.420;2023-11-21T13:43:16;6.70;65.90
81222;DHT22;70691;52.492;13.420;2023-11-21T13:45:47;6.60;65.00
81222;DHT22;70691;52.492;13.420;2023-11-21T13:48:13;6.40;65.20
81222;DHT22;70691;52.492;13.420;2023-11-21T13:50:40;6.20;66.10
81222;DHT22;70691;52.492;13.420;2023-11-21T13:53:14;6.00;66.70
81222;DHT22;70691;52.492;13.420;2023-11-21T13:55:53;5.80;67.20
81222;DHT22;70691;52.492;13.420;2023-11-21T13:58:23;5.70;68.20
81222;DHT22;70691;52.492;13.420;2023-11-21T14:01:07;5.70;68.10
81222;DHT22;70691;52.492;13.420;2023-11-21T14:03:50;5.80;67.00
81222;DHT22;70691;52.492;13.420;2023-11-21T14:06:22;5.80;68.00
81222;DHT22;70691;52.492;13.420;2023-11-21T14:08:53;5.80;67.60
81222;DHT22;70691;52.492;13.420;2023-11-21T14:11:22;6.00;67.80
81222;DHT22;70691;52.492;13.420;2023-11-21T14:13:48;6.00;66.90
81222;DHT22;70691;52.492;13.420;2023-11-21T14:16:14;6.00;67.20
81222;DHT22;70691;52.492;13.420;2023-11-21T14:18:42;6.00;65.00
81222;DHT22;70691;52.492;13.420;2023-11-21T14:21:19;5.80;66.30
81222;DHT22;70691;52.492;13.420;2023-11-21T14:23:44;5.60;67.20
81222;DHT22;70691;52.492;13.420;2023-11-21T14:26:11;5.40;67.90
81222;DHT22;70691;52.492;13.420;2023-11-21T14:28:43;5.40;69.00
81222;DHT22;70691;52.492;13.420;2023-11-21T14:31:09;5.30;68.30
81222;DHT22;70691;52.492;13.420;2023-11-21T14:33:39;5.40;68.10
81222;DHT22;70691;52.492;13.420;2023-11-21T14:36:06;5.40;68.70
81222;DHT22;70691;52.492;13.420;2023-11-21T14:38:38;5.30;68.30
81222;DHT22;70691;52.492;13.420;2023-11-21T14:41:05;5.40;68.60
81222;DHT22;70691;52.492;13.420;2023-11-21T14:43:37;5.40;69.00
81222;DHT22;70691;52.492;13.420;2023-11-21T14:46:04;5.30;69.70
81222;DHT22;70691;52.492;13.420;2023-11-21T14:48:34;5.50;68.70
81222;DHT22;70691;52.492;13.420;2023-11-21T14:51:12;5.40;68.00
81222;DHT22;70691;52.492;13.420;2023-11-21T14:53:58;5.40;68.70
81222;DHT22;70691;52.492;13.420;2023-11-21T14:56:32;5.30;69.50
81222;DHT22;70691;52.492;13.420;2023-11-21T14:59:02;5.30;68.40
81222;DHT22;70691;52.492;13.420;2023-11-21T15:01:34;5.40;68.40
81222;DHT22;70691;52.492;13.420;2023-11-21T15:04:19;5.30;68.20
81222;DHT22;70691;52.492;13.420;2023-11-21T15:07:17;5.30;68.60
81222;DHT22;70691;52.492;13.420;2023-11-21T15:09:42;5.30;68.50
81222;DHT22;70691;52.492;13.420;2023-11-21T15:12:09;5.40;68.00
81222;DHT22;70691;52.492;13.420;2023-11-21T15:14:42;5.30;66.30
81222;DHT22;70691;52.492;13.420;2023-11-21T15:17:09;5.10;66.50
81222;DHT22;70691;52.492;13.420;2023-11-21T15:19:35;5.10;67.00
81222;DHT22;70691;52.492;13.420;2023-11-21T15:22:01;5.00;67.20
81222;DHT22;70691;52.492;13.420;2023-11-21T15:24:27;4.90;67.50
81222;DHT22;70691;52.492;13.420;2023-11-21T15:26:53;4.90;67.90
81222;DHT22;70691;52.492;13.420;2023-11-21T15:29:19;4.80;67.60
81222;DHT22;70691;52.492;13.420;2023-11-21T15:31:47;4.90;67.20
81222;DHT22;70691;52.492;13.420;2023-11-21T15:34:15;5.00;66.90
81222;DHT22;70691;52.492;13.420;2023-11-21T15:36:40;5.00;65.80
81222;DHT22;70691;52.492;13.420;2023-11-21T15:39:06;5.00;66.70
81222;DHT22;70691;52.492;13.420;2023-11-21T15:41:35;5.10;66.30
81222;DHT22;70691;52.492;13.420;2023-11-21T15:44:02;5.20;65.20
81222;DHT22;70691;52.492;13.420;2023-11-21T15:46:29;5.20;63.80
81222;DHT22;70691;52.492;13.420;2023-11-21T15:48:55;5.10;63.10